createdAt,value
2017-08-14T00:02:45.638Z,7.47
2017-08-14T00:05:55.539Z,7.60
2017-08-14T00:09:06.169Z,7.20
2017-08-14T00:12:16.115Z,8.43
2017-08-14T00:15:25.849Z,9.70
2017-08-14T00:18:36.102Z,7.90
2017-08-14T00:21:46.128Z,10.15
2017-08-14T00:24:56.179Z,8.13
2017-08-14T00:28:05.997Z,8.93
2017-08-14T00:31:15.910Z,8.43
2017-08-14T00:34:25.812Z,7.72
2017-08-14T00:37:35.787Z,10.07
2017-08-14T00:40:45.398Z,9.43
2017-08-14T00:43:55.438Z,10.23
2017-08-14T00:47:05.379Z,8.55
2017-08-14T00:50:15.972Z,9.15
2017-08-14T00:53:25.999Z,8.50
2017-08-14T00:56:35.718Z,8.35
2017-08-14T00:59:45.583Z,8.20
2017-08-14T01:02:56.046Z,7.40
2017-08-14T01:06:05.981Z,11.12
2017-08-14T01:09:15.879Z,6.95
2017-08-14T01:12:26.488Z,9.48
2017-08-14T01:15:36.508Z,10.02
2017-08-14T01:18:46.451Z,7.35
2017-08-14T01:21:56.151Z,8.13
2017-08-14T01:25:06.175Z,8.43
2017-08-14T01:28:15.999Z,7.68
2017-08-14T01:31:25.686Z,8.68
2017-08-14T01:34:35.830Z,8.18
2017-08-14T01:37:45.638Z,9.48
2017-08-14T01:40:55.815Z,7.07
2017-08-14T01:44:06.560Z,7.72
2017-08-14T01:47:16.287Z,9.00
2017-08-14T01:50:26.302Z,8.27
2017-08-14T01:53:37.047Z,8.25
2017-08-14T01:56:47.640Z,8.95
2017-08-14T01:59:57.579Z,8.05
2017-08-14T02:03:07.384Z,8.32
2017-08-14T02:06:17.579Z,7.97
2017-08-14T02:09:27.407Z,6.57
2017-08-14T02:12:37.327Z,8.50
2017-08-14T02:15:48.136Z,7.90
2017-08-14T02:18:57.880Z,8.05
2017-08-14T02:22:07.918Z,9.00
2017-08-14T02:25:17.715Z,8.30
2017-08-14T02:28:27.623Z,8.73
2017-08-14T02:31:37.472Z,8.02
2017-08-14T02:34:47.493Z,7.70
2017-08-14T02:37:57.320Z,7.25
2017-08-14T02:41:07.263Z,8.32
2017-08-14T02:44:17.171Z,7.78
2017-08-14T02:47:27.771Z,7.32
2017-08-14T02:50:38.495Z,7.32
2017-08-14T02:53:49.094Z,8.18
2017-08-14T02:56:59.799Z,7.07
2017-08-14T03:00:09.609Z,6.85
2017-08-14T03:03:19.320Z,9.38
2017-08-14T03:06:29.229Z,9.00
2017-08-14T03:09:39.316Z,8.60
2017-08-14T03:12:49.153Z,7.32
2017-08-14T03:15:59.813Z,7.78
2017-08-14T03:19:09.854Z,9.07
2017-08-14T03:22:19.710Z,8.20
2017-08-14T03:25:29.450Z,7.75
2017-08-14T03:28:39.284Z,6.70
2017-08-14T03:31:49.914Z,6.62
2017-08-14T03:34:59.926Z,6.45
2017-08-14T03:38:09.775Z,8.65
2017-08-14T03:41:19.655Z,8.35
2017-08-14T03:44:30.206Z,6.80
2017-08-14T03:47:40.119Z,6.90
2017-08-14T03:50:50.683Z,8.30
2017-08-14T03:54:00.997Z,8.68
2017-08-14T03:57:11.644Z,6.90
2017-08-14T04:00:21.647Z,7.15
2017-08-14T04:03:32.378Z,7.55
2017-08-14T04:06:43.074Z,9.80
2017-08-14T04:09:52.982Z,7.93
2017-08-14T04:13:02.951Z,9.43
2017-08-14T04:16:12.967Z,7.15
2017-08-14T04:19:23.079Z,7.40
2017-08-14T04:22:33.735Z,9.38
2017-08-14T04:25:43.727Z,7.95
2017-08-14T04:28:53.464Z,7.75
2017-08-14T04:32:03.518Z,9.63
2017-08-14T04:35:13.371Z,7.55
2017-08-14T04:38:23.177Z,7.07
2017-08-14T04:41:33.070Z,7.47
2017-08-14T04:44:42.999Z,7.30
2017-08-14T04:47:53.627Z,7.85
2017-08-14T04:51:03.666Z,8.63
2017-08-14T04:54:14.198Z,7.68
2017-08-14T04:57:24.039Z,9.00
2017-08-14T05:00:34.068Z,6.75
2017-08-14T05:03:43.908Z,7.20
2017-08-14T05:06:53.859Z,7.60
2017-08-14T05:10:04.465Z,7.40
2017-08-14T05:13:14.312Z,8.52
2017-08-14T05:16:24.340Z,9.15
2017-08-14T05:19:34.213Z,8.05
2017-08-14T05:22:44.168Z,7.95
2017-08-14T05:25:53.590Z,7.57
2017-08-14T05:29:03.853Z,8.38
2017-08-14T05:32:13.970Z,8.70
2017-08-14T05:35:24.060Z,8.05
2017-08-14T05:38:33.905Z,7.30
2017-08-14T05:41:44.567Z,7.57
2017-08-14T05:44:54.507Z,8.40
2017-08-14T05:48:04.315Z,8.27
2017-08-14T05:51:14.271Z,9.63
2017-08-14T05:54:24.110Z,7.35
2017-08-14T05:57:33.991Z,6.62
2017-08-14T06:00:44.709Z,8.48
2017-08-14T06:03:54.376Z,9.60
2017-08-14T06:07:04.255Z,8.55
2017-08-14T06:10:13.815Z,8.55
2017-08-14T06:13:23.971Z,8.05
2017-08-14T06:16:34.765Z,8.10
2017-08-14T06:19:45.075Z,8.25
2017-08-14T06:22:54.771Z,8.05
2017-08-14T06:26:04.583Z,7.35
2017-08-14T06:29:14.455Z,5.70
2017-08-14T06:32:24.184Z,6.65
2017-08-14T06:35:34.129Z,8.87
2017-08-14T06:38:44.666Z,7.82
2017-08-14T06:41:54.655Z,5.90
2017-08-14T06:45:04.563Z,7.93
2017-08-14T06:48:14.516Z,8.57
2017-08-14T06:51:24.305Z,7.22
2017-08-14T06:54:34.941Z,7.20
2017-08-14T06:57:44.975Z,6.47
2017-08-14T07:00:54.751Z,6.50
2017-08-14T07:04:04.758Z,6.10
2017-08-14T07:07:14.617Z,9.05
2017-08-14T07:10:24.778Z,6.80
2017-08-14T07:13:34.579Z,7.65
2017-08-14T07:16:44.654Z,7.30
2017-08-14T07:19:55.265Z,6.07
2017-08-14T07:23:05.292Z,7.60
2017-08-14T07:26:15.054Z,5.95
2017-08-14T07:29:25.087Z,7.05
2017-08-14T07:32:35.775Z,8.30
2017-08-14T07:35:45.816Z,6.43
2017-08-14T07:38:55.708Z,7.32
2017-08-14T07:42:05.532Z,7.85
2017-08-14T07:45:16.063Z,7.80
2017-08-14T07:48:25.927Z,7.32
2017-08-14T07:51:36.595Z,7.10
2017-08-14T07:54:46.428Z,6.12
2017-08-14T07:57:56.388Z,6.78
2017-08-14T08:01:06.227Z,7.47
2017-08-14T08:04:16.356Z,6.43
2017-08-14T08:07:28.258Z,7.28
2017-08-14T08:10:38.978Z,6.30
2017-08-14T08:13:48.904Z,5.68
2017-08-14T08:16:58.896Z,5.90
2017-08-14T08:20:08.805Z,5.57
2017-08-14T08:23:18.608Z,4.53
2017-08-14T08:26:28.520Z,4.28
2017-08-14T08:29:39.271Z,5.75
2017-08-14T08:32:49.867Z,5.32
2017-08-14T08:35:59.864Z,6.07
2017-08-14T08:39:09.718Z,4.62
2017-08-14T08:42:20.361Z,4.85
2017-08-14T08:45:30.307Z,4.50
2017-08-14T08:48:40.020Z,4.62
2017-08-14T08:51:50.143Z,5.00
2017-08-14T08:55:00.600Z,5.15
2017-08-14T08:58:12.014Z,6.12
2017-08-14T09:01:22.347Z,4.50
2017-08-14T09:04:32.315Z,4.62
2017-08-14T09:07:42.970Z,5.12
2017-08-14T09:10:52.899Z,4.30
2017-08-14T09:14:02.978Z,4.28
2017-08-14T09:17:13.721Z,3.90
2017-08-14T09:20:23.713Z,3.83
2017-08-14T09:23:34.922Z,3.95
2017-08-14T09:26:45.053Z,3.60
2017-08-14T09:29:54.797Z,3.40
2017-08-14T09:33:04.642Z,3.28
2017-08-14T09:36:14.544Z,4.45
2017-08-14T09:39:25.071Z,4.55
2017-08-14T09:42:35.795Z,4.30
2017-08-14T09:45:45.616Z,3.40
2017-08-14T09:48:55.453Z,7.72
2017-08-14T09:52:05.187Z,4.30
2017-08-14T09:55:14.989Z,5.32
2017-08-14T09:58:25.000Z,4.75
2017-08-14T10:01:34.709Z,5.43
2017-08-14T10:04:44.697Z,4.00
2017-08-14T10:07:54.599Z,4.40
2017-08-14T10:11:04.437Z,3.70
2017-08-14T10:14:14.302Z,3.00
2017-08-14T10:17:24.043Z,4.37
2017-08-14T10:20:33.962Z,4.07
2017-08-14T10:23:43.965Z,3.90
2017-08-14T10:26:53.899Z,3.47
2017-08-14T10:30:03.687Z,4.43
2017-08-14T10:33:13.669Z,3.70
2017-08-14T10:36:24.407Z,4.37
2017-08-14T10:39:34.238Z,3.55
2017-08-14T10:42:44.068Z,3.45
2017-08-14T10:45:53.895Z,3.92
2017-08-14T10:49:03.716Z,3.05
2017-08-14T10:52:13.807Z,3.87
2017-08-14T10:55:24.135Z,2.97
2017-08-14T10:58:35.611Z,2.42
2017-08-14T11:01:46.238Z,2.75
2017-08-14T11:04:56.173Z,3.95
2017-08-14T11:08:06.788Z,3.33
2017-08-14T11:11:16.785Z,2.83
2017-08-14T11:14:26.728Z,3.20
2017-08-14T11:17:36.613Z,3.30
2017-08-14T11:20:47.095Z,3.67
2017-08-14T11:23:57.202Z,2.90
2017-08-14T11:27:07.440Z,3.40
2017-08-14T11:30:17.203Z,4.60
2017-08-14T11:33:27.122Z,3.20
2017-08-14T11:36:36.959Z,3.00
2017-08-14T11:39:46.894Z,2.60
2017-08-14T11:42:56.570Z,4.73
2017-08-14T11:46:06.329Z,2.67
2017-08-14T11:49:15.973Z,3.57
2017-08-14T11:52:25.907Z,3.80
2017-08-14T11:55:35.472Z,3.50
2017-08-14T11:58:45.192Z,4.53
2017-08-14T12:01:54.843Z,4.73
2017-08-14T12:05:04.652Z,3.70
2017-08-14T12:08:14.407Z,3.90
2017-08-14T12:11:24.038Z,3.30
2017-08-14T12:14:33.867Z,3.67
2017-08-14T12:17:43.424Z,3.90
2017-08-14T12:20:53.342Z,2.83
2017-08-14T12:24:03.292Z,4.07
2017-08-14T12:27:13.146Z,3.53
2017-08-14T12:30:23.035Z,3.67
2017-08-14T12:33:32.659Z,3.10
2017-08-14T12:36:42.608Z,3.47
2017-08-14T12:39:52.653Z,2.90
2017-08-14T12:43:02.583Z,4.13
2017-08-14T12:46:12.592Z,3.80
2017-08-14T12:49:22.497Z,4.63
2017-08-14T12:52:32.095Z,3.30
2017-08-14T12:55:41.874Z,4.40
2017-08-14T12:58:51.651Z,4.67
2017-08-14T13:02:01.360Z,2.90
2017-08-14T13:05:11.337Z,3.10
2017-08-14T13:08:21.226Z,3.87
2017-08-14T13:11:31.015Z,3.03
2017-08-14T13:14:40.968Z,4.37
2017-08-14T13:17:50.837Z,3.80
2017-08-14T13:21:00.770Z,2.97
2017-08-14T13:24:10.552Z,2.90
2017-08-14T13:27:20.226Z,3.90
2017-08-14T13:30:30.107Z,4.13
2017-08-14T13:33:39.679Z,3.40
2017-08-14T13:36:49.342Z,3.60
2017-08-14T13:39:59.032Z,5.60
2017-08-14T13:43:08.957Z,3.90
2017-08-14T13:46:18.660Z,3.70
2017-08-14T13:49:28.363Z,5.13
2017-08-14T13:52:38.276Z,4.37
2017-08-14T13:55:48.083Z,4.73
2017-08-14T13:58:57.856Z,3.53
2017-08-14T14:02:07.739Z,4.27
2017-08-14T14:05:17.682Z,3.70
2017-08-14T14:08:27.476Z,3.93
2017-08-14T14:11:37.124Z,4.03
2017-08-14T14:14:46.960Z,4.43
2017-08-14T14:17:56.840Z,4.40
2017-08-14T14:21:06.663Z,6.40
2017-08-14T14:24:16.435Z,7.20
2017-08-14T14:27:26.231Z,4.67
2017-08-14T14:30:36.079Z,3.10
2017-08-14T14:33:46.268Z,4.12
2017-08-14T14:36:57.064Z,3.80
2017-08-14T14:40:06.998Z,3.93
2017-08-14T14:43:16.599Z,4.20
2017-08-14T14:46:26.351Z,5.00
2017-08-14T14:49:36.135Z,3.60
2017-08-14T14:52:45.952Z,5.10
2017-08-14T14:55:55.720Z,4.27
2017-08-14T14:59:05.504Z,5.23
2017-08-14T15:02:15.274Z,3.37
2017-08-14T15:05:25.032Z,3.50
2017-08-14T15:08:34.740Z,3.90
2017-08-14T15:11:44.562Z,5.30
2017-08-14T15:14:54.330Z,3.67
2017-08-14T15:18:04.235Z,5.50
2017-08-14T15:21:13.990Z,5.20
2017-08-14T15:24:23.928Z,5.47
2017-08-14T15:27:33.390Z,4.00
2017-08-14T15:30:43.228Z,5.50
2017-08-14T15:33:53.027Z,5.90
2017-08-14T15:37:02.783Z,4.20
2017-08-14T15:40:12.770Z,4.73
2017-08-14T15:43:22.372Z,5.37
2017-08-14T15:46:32.020Z,5.43
2017-08-14T15:49:41.811Z,5.50
2017-08-14T15:52:51.562Z,4.47
2017-08-14T15:56:01.230Z,4.40
2017-08-14T15:59:10.978Z,4.50
2017-08-14T16:02:20.924Z,4.10
2017-08-14T16:05:30.501Z,3.67
2017-08-14T16:08:40.291Z,5.80
2017-08-14T16:11:49.924Z,4.73
2017-08-14T16:14:59.507Z,4.60
2017-08-14T16:18:09.250Z,4.83
2017-08-14T16:21:19.611Z,4.43
2017-08-14T16:24:29.369Z,4.07
2017-08-14T16:27:39.144Z,5.40
2017-08-14T16:30:48.794Z,4.40
2017-08-14T16:33:58.606Z,4.70
2017-08-14T16:37:08.247Z,4.33
2017-08-14T16:40:18.060Z,3.77
2017-08-14T16:43:28.060Z,4.53
2017-08-14T16:46:37.715Z,6.23
2017-08-14T16:49:47.747Z,4.80
2017-08-14T16:56:13.138Z,5.57
2017-08-14T16:59:23.023Z,7.55
2017-08-14T17:02:32.848Z,6.10
2017-08-14T17:05:43.091Z,4.70
2017-08-14T17:08:52.732Z,5.83
2017-08-14T17:12:02.375Z,6.80
2017-08-14T17:15:12.243Z,4.50
2017-08-14T17:18:21.811Z,4.00
2017-08-14T17:21:31.627Z,4.80
2017-08-14T17:24:41.436Z,4.37
2017-08-14T17:27:50.864Z,4.40
2017-08-14T17:31:00.920Z,5.35
2017-08-14T17:34:10.895Z,5.03
2017-08-14T17:37:20.499Z,4.83
2017-08-14T17:40:30.279Z,4.15
2017-08-14T17:43:40.142Z,4.70
2017-08-14T17:46:50.758Z,3.43
2017-08-14T17:50:01.194Z,5.22
2017-08-14T17:53:11.027Z,4.80
2017-08-14T17:56:20.852Z,5.03
2017-08-14T17:59:30.892Z,5.18
2017-08-14T18:02:40.862Z,5.20
2017-08-14T18:05:50.682Z,4.60
2017-08-14T18:09:00.490Z,6.60
2017-08-14T18:12:10.430Z,5.30
2017-08-14T18:15:21.039Z,6.37
2017-08-14T18:18:31.000Z,5.78
2017-08-14T18:21:40.699Z,6.05
2017-08-14T18:24:50.632Z,4.90
2017-08-14T18:28:00.443Z,5.72
2017-08-14T18:31:10.263Z,4.87
2017-08-14T18:34:20.194Z,4.87
2017-08-14T18:37:30.030Z,5.18
2017-08-14T18:40:39.727Z,5.78
2017-08-14T18:43:49.783Z,6.20
2017-08-14T18:46:59.644Z,3.92
2017-08-14T18:50:10.315Z,4.18
2017-08-14T18:53:20.971Z,5.60
2017-08-14T18:56:30.780Z,5.28
2017-08-14T18:59:40.838Z,7.12
2017-08-14T19:02:50.632Z,5.35
2017-08-14T19:06:00.323Z,5.30
2017-08-14T19:09:12.373Z,3.78
2017-08-14T19:12:20.959Z,4.25
2017-08-14T19:15:30.884Z,5.15
2017-08-14T19:18:41.459Z,5.25
2017-08-14T19:21:51.262Z,5.85
2017-08-14T19:25:01.048Z,5.45
2017-08-14T19:28:11.113Z,6.78
2017-08-14T19:31:20.848Z,6.68
2017-08-14T19:34:30.993Z,4.87
2017-08-14T19:37:41.704Z,5.18
2017-08-14T19:40:51.415Z,5.40
2017-08-14T19:44:01.318Z,6.75
2017-08-14T19:47:11.934Z,6.12
2017-08-14T19:50:22.095Z,7.20
2017-08-14T19:53:31.871Z,6.65
2017-08-14T19:56:41.688Z,5.00
2017-08-14T19:59:51.501Z,6.05
2017-08-14T20:03:01.462Z,5.07
2017-08-14T20:06:11.273Z,6.25
2017-08-14T20:09:21.843Z,5.72
2017-08-14T20:12:32.175Z,6.45
2017-08-14T20:15:41.870Z,6.47
2017-08-14T20:18:51.987Z,5.82
2017-08-14T20:22:01.935Z,6.05
2017-08-14T20:25:11.777Z,6.82
2017-08-14T20:28:22.408Z,6.32
2017-08-14T20:31:32.344Z,7.43
2017-08-14T20:34:42.298Z,6.25
2017-08-14T20:37:52.956Z,8.02
2017-08-14T20:41:02.962Z,6.10
2017-08-14T20:44:12.732Z,8.30
2017-08-14T20:47:22.779Z,6.25
2017-08-14T20:50:32.447Z,7.20
2017-08-14T20:53:42.446Z,7.18
2017-08-14T20:56:52.336Z,7.32
2017-08-14T21:00:02.430Z,6.68
2017-08-14T21:03:12.292Z,5.70
2017-08-14T21:06:22.413Z,6.15
2017-08-14T21:09:32.187Z,7.47
2017-08-14T21:12:42.236Z,6.75
2017-08-14T21:15:51.974Z,6.00
2017-08-14T21:19:02.014Z,6.90
2017-08-14T21:22:11.806Z,6.22
2017-08-14T21:25:21.740Z,5.45
2017-08-14T21:28:31.460Z,7.20
2017-08-14T21:31:42.212Z,4.55
2017-08-14T21:34:52.811Z,5.45
2017-08-14T21:38:02.872Z,5.85
2017-08-14T21:41:12.805Z,5.90
2017-08-14T21:44:22.739Z,4.55
2017-08-14T21:47:32.645Z,5.25
2017-08-14T21:50:42.531Z,6.20
2017-08-14T21:53:52.387Z,5.15
2017-08-14T21:57:02.415Z,5.95
2017-08-14T22:00:12.539Z,5.95
2017-08-14T22:03:22.470Z,4.47
2017-08-14T22:06:32.183Z,4.15
2017-08-14T22:09:41.995Z,4.60
2017-08-14T22:12:51.929Z,5.43
2017-08-14T22:16:01.718Z,4.75
2017-08-14T22:19:11.764Z,4.55
2017-08-14T22:22:21.551Z,4.22
2017-08-14T22:25:31.479Z,3.75
2017-08-14T22:28:41.167Z,4.53
2017-08-14T22:31:51.258Z,4.30
2017-08-14T22:35:00.966Z,4.32
2017-08-14T22:38:10.960Z,5.32
2017-08-14T22:41:20.892Z,5.43
2017-08-14T22:44:30.810Z,5.93
2017-08-14T22:47:41.431Z,5.37
2017-08-14T22:50:51.371Z,4.90
2017-08-14T22:54:01.151Z,5.00
2017-08-14T22:57:11.054Z,5.57
2017-08-14T23:00:20.915Z,7.72
2017-08-14T23:03:31.016Z,4.60
2017-08-14T23:06:40.864Z,5.20
2017-08-14T23:09:50.553Z,4.95
2017-08-14T23:13:00.574Z,4.80
2017-08-14T23:16:10.537Z,5.37
2017-08-14T23:19:20.374Z,7.87
2017-08-14T23:22:30.082Z,4.45
2017-08-14T23:25:40.005Z,4.87
2017-08-14T23:28:49.699Z,7.12
2017-08-14T23:31:59.730Z,6.00
2017-08-14T23:35:09.560Z,5.12
2017-08-14T23:38:19.514Z,5.15
2017-08-14T23:41:29.439Z,5.00
2017-08-14T23:44:39.352Z,5.50
2017-08-14T23:47:50.125Z,5.90
2017-08-14T23:50:59.931Z,7.62
2017-08-14T23:54:09.875Z,6.03
2017-08-14T23:57:19.700Z,4.90
